Time;durP1;ratioP1;P1;durP2;ratioP2;P2;SDS_P1;SDS_P2;PMS_P1;PMS_P2;Temp;Humidity;BMP_temperature;BMP_pressure;BME280_temperature;BME280_humidity;BME280_pressure;Samples;Min_cycle;Max_cycle;Signal;HPM_P1;HPM_P2
2021/12/04 00:00:14;;;;;;;7.63;4.22;;;;;;;-0.11;78.07;98478.16;5033865;28;20511;-53
2021/12/04 00:03:00;;;;;;;7.82;4.40;;;;;;;0.04;78.21;98463.13;5033992;28;20064;-57
2021/12/04 00:06:00;;;;;;;7.82;4.10;;;;;;;-0.21;75.82;98469.00;5033725;28;20052;-56
2021/12/04 00:08:47;;;;;;;7.20;4.03;;;;;;;-0.50;77.05;98469.78;5033816;28;20044;-58
2021/12/04 00:11:35;;;;;;;7.18;3.88;;;;;;;-0.59;78.61;98466.63;5039182;28;20148;-57
2021/12/04 00:14:21;;;;;;;7.43;3.83;;;;;;;-0.50;76.48;98479.25;5032782;28;20376;-56
2021/12/04 00:17:07;;;;;;;8.52;3.85;;;;;;;-0.69;76.23;98473.75;5024822;28;20417;-58
2021/12/04 00:19:54;;;;;;;7.18;4.03;;;;;;;-0.64;77.21;98470.16;5033310;28;20052;-57
2021/12/04 00:22:40;;;;;;;6.90;3.88;;;;;;;-0.45;77.23;98464.50;5039474;28;20052;-56
2021/12/04 00:25:28;;;;;;;6.53;4.18;;;;;;;-0.53;77.24;98457.00;5033246;28;20060;-56
2021/12/04 00:28:13;;;;;;;6.07;3.95;;;;;;;-0.49;78.13;98450.06;5032360;28;20401;-57
2021/12/04 00:31:04;;;;;;;8.43;3.80;;;;;;;-0.17;77.06;98457.72;5033305;28;20049;-59
2021/12/04 00:33:50;;;;;;;6.73;3.90;;;;;;;-0.14;75.98;98447.31;5033134;28;20591;-56
2021/12/04 00:36:59;;;;;;;7.35;3.80;;;;;;;-0.20;76.38;98435.50;5033153;28;20072;-57
2021/12/04 00:49:09;;;;;;;6.85;3.50;;;;;;;-0.36;75.61;98427.38;5032028;28;20496;-57
2021/12/04 00:51:55;;;;;;;6.30;3.38;;;;;;;-0.16;76.19;98441.38;5032016;28;20060;-57
2021/12/04 00:54:42;;;;;;;7.05;3.58;;;;;;;-0.15;74.86;98431.03;5032091;28;20056;-54
2021/12/04 00:57:28;;;;;;;6.78;3.70;;;;;;;-0.13;75.20;98433.56;5032630;28;20510;-57
2021/12/04 01:00:14;;;;;;;5.78;3.35;;;;;;;-0.08;75.72;98433.44;5032867;28;20408;-56
2021/12/04 01:03:00;;;;;;;6.63;3.42;;;;;;;-0.13;74.29;98425.81;5032821;28;20381;-57
2021/12/04 01:05:45;;;;;;;8.38;3.80;;;;;;;-0.21;74.62;98426.06;5032540;28;20060;-56
2021/12/04 01:08:31;;;;;;;5.85;3.25;;;;;;;-0.20;74.32;98419.19;5027443;28;20500;-57
2021/12/04 01:11:17;;;;;;;6.53;3.50;;;;;;;-0.27;74.52;98419.38;5031888;28;20057;-57
2021/12/04 01:14:04;;;;;;;7.13;3.17;;;;;;;-0.29;75.21;98430.59;5031801;28;20052;-57
2021/12/04 01:16:50;;;;;;;6.40;3.80;;;;;;;-0.32;74.86;98420.38;5037089;28;20049;-57
2021/12/04 01:19:39;;;;;;;7.38;3.88;;;;;;;-0.95;75.70;98414.41;5032213;28;20068;-54
2021/12/04 01:22:26;;;;;;;8.20;4.28;;;;;;;-1.16;77.87;98418.41;5031292;28;20068;-56
2021/12/04 01:25:12;;;;;;;8.48;4.03;;;;;;;-1.26;78.32;98425.50;5032127;28;20057;-55
2021/12/04 01:27:58;;;;;;;8.63;3.85;;;;;;;-1.35;78.89;98420.59;5031013;28;20408;-54
2021/12/04 01:30:44;;;;;;;8.10;3.85;;;;;;;-1.14;76.84;98407.19;5032195;28;20611;-52
2021/12/04 01:33:30;;;;;;;6.50;3.38;;;;;;;-0.89;78.39;98405.69;5032143;28;20056;-56
2021/12/04 01:36:16;;;;;;;7.45;3.75;;;;;;;-0.78;76.87;98408.78;5031142;28;20055;-56
2021/12/04 01:39:04;;;;;;;7.25;3.72;;;;;;;-0.94;76.67;98392.94;5032057;28;20100;-57
2021/12/04 01:41:50;;;;;;;7.25;4.05;;;;;;;-0.87;77.19;98401.34;5031690;28;20049;-56
2021/12/04 01:44:35;;;;;;;8.32;4.07;;;;;;;-0.85;76.60;98385.84;5031913;28;20052;-55
2021/12/04 01:47:21;;;;;;;9.68;4.68;;;;;;;-1.15;76.50;98394.38;5032102;28;20117;-56
2021/12/04 01:50:08;;;;;;;8.27;4.10;;;;;;;-1.27;76.86;98386.09;5031993;28;20120;-56
2021/12/04 01:52:55;;;;;;;7.35;4.20;;;;;;;-1.36;77.67;98396.63;5031819;28;20479;-55
2021/12/04 01:55:41;;;;;;;9.10;4.65;;;;;;;-1.31;77.55;98392.22;5030577;28;20076;-55
2021/12/04 01:58:29;;;;;;;8.05;4.32;;;;;;;-1.35;77.74;98380.31;5031017;28;20049;-54
2021/12/04 02:01:15;;;;;;;7.40;3.97;;;;;;;-1.19;77.16;98382.47;5031956;28;20049;-54
2021/12/04 02:04:01;;;;;;;7.05;4.45;;;;;;;-1.26;76.10;98384.38;5022998;28;20391;-56
2021/12/04 02:06:47;;;;;;;8.38;4.25;;;;;;;-1.25;77.69;98379.19;5031490;28;20057;-56
2021/12/04 02:09:33;;;;;;;8.32;4.18;;;;;;;-1.34;77.19;98356.31;5031823;28;20052;-56
2021/12/04 02:12:19;;;;;;;7.25;4.50;;;;;;;-1.94;77.49;98349.19;5031717;28;20056;-56
2021/12/04 02:15:09;;;;;;;8.25;4.65;;;;;;;-1.93;78.78;98356.03;5030469;28;20068;-56
2021/12/04 02:17:56;;;;;;;7.60;4.57;;;;;;;-1.93;77.73;98338.06;5031436;28;20052;-56
2021/12/04 02:20:42;;;;;;;8.70;4.00;;;;;;;-1.73;78.12;98347.00;5030637;28;20060;-56
2021/12/04 02:23:28;;;;;;;8.55;4.28;;;;;;;-1.80;77.94;98341.19;5031686;28;20057;-54
2021/12/04 02:26:14;;;;;;;9.75;4.80;;;;;;;-2.03;78.65;98323.75;5036354;28;20072;-54
2021/12/04 02:28:59;;;;;;;7.63;4.05;;;;;;;-1.92;79.01;98326.91;5031885;28;20408;-57
2021/12/04 02:31:50;;;;;;;6.90;4.28;;;;;;;-1.73;78.21;98322.13;5036305;28;20052;-56
2021/12/04 02:34:38;;;;;;;13.60;4.75;;;;;;;-2.00;78.39;98315.97;5036608;28;20495;-56
2021/12/04 02:37:23;;;;;;;7.78;3.88;;;;;;;-1.95;78.92;98313.28;5036445;28;20056;-56
2021/12/04 02:40:11;;;;;;;9.15;4.63;;;;;;;-1.99;78.87;98312.50;5031761;28;20052;-57
2021/12/04 02:42:57;;;;;;;7.72;4.32;;;;;;;-2.30;79.48;98315.84;5031633;28;20064;-58
2021/12/04 02:45:44;;;;;;;7.88;4.88;;;;;;;-2.26;79.69;98317.44;5031144;28;20495;-57
2021/12/04 02:48:29;;;;;;;8.45;4.63;;;;;;;-2.15;79.92;98305.19;5030579;28;20048;-56
2021/12/04 02:51:16;;;;;;;7.85;3.80;;;;;;;-1.91;79.13;98315.72;5031587;28;20056;-54
2021/12/04 02:54:02;;;;;;;9.35;4.65;;;;;;;-1.94;79.03;98304.72;5021135;28;20053;-57
2021/12/04 02:56:50;;;;;;;7.45;3.97;;;;;;;-1.81;78.50;98298.38;5030418;28;20056;-57
2021/12/04 02:59:38;;;;;;;8.07;4.35;;;;;;;-1.85;79.13;98294.22;5031328;28;20052;-57
2021/12/04 03:02:25;;;;;;;8.45;4.60;;;;;;;-1.74;78.70;98299.06;5031326;28;20060;-56
2021/12/04 03:05:11;;;;;;;5.65;3.58;;;;;;;-1.64;77.79;98307.38;5030026;28;20057;-56
2021/12/04 03:07:58;;;;;;;8.48;4.28;;;;;;;-1.57;77.77;98302.94;5036129;28;20056;-57
2021/12/04 03:10:47;;;;;;;7.93;3.80;;;;;;;-1.62;77.98;98293.59;5030262;28;20052;-57
2021/12/04 03:13:32;;;;;;;7.55;3.90;;;;;;;-1.77;78.35;98299.16;5021989;28;20060;-58
2021/12/04 03:16:18;;;;;;;6.68;3.55;;;;;;;-1.50;78.08;98302.72;5031003;28;20065;-56
2021/12/04 03:19:05;;;;;;;9.80;4.45;;;;;;;-1.62;78.55;98305.63;5031194;28;20056;-55
2021/12/04 03:21:51;;;;;;;8.68;4.03;;;;;;;-1.69;78.18;98291.22;5032473;28;20057;-56
2021/12/04 03:24:40;;;;;;;7.85;4.05;;;;;;;-1.54;77.94;98293.41;5033815;28;20048;-56
2021/12/04 03:27:29;;;;;;;7.13;3.67;;;;;;;-1.74;78.43;98278.50;5032636;28;20056;-55
2021/12/04 03:30:31;;;;;;;7.03;3.50;;;;;;;-1.51;77.89;98288.19;5031194;28;20048;-54
2021/12/04 03:42:30;;;;;;;9.45;5.03;;;;;;;-1.88;79.69;98309.69;5054763;28;20056;-56
2021/12/04 03:45:16;;;;;;;8.43;3.75;;;;;;;-1.71;79.97;98305.88;5053400;28;20052;-56
2021/12/04 03:51:10;;;;;;;8.77;4.60;;;;;;;-1.64;79.79;98273.97;5032732;28;20503;-55
2021/12/04 03:53:56;;;;;;;8.00;4.40;;;;;;;-1.59;79.09;98258.44;5032948;28;20060;-59
2021/12/04 03:56:42;;;;;;;9.98;4.57;;;;;;;-1.77;80.22;98260.63;5034408;28;20057;-56
2021/12/04 03:59:28;;;;;;;12.52;5.15;;;;;;;-1.79;80.62;98262.38;5034036;28;20052;-58
2021/12/04 04:02:17;;;;;;;9.23;4.97;;;;;;;-1.96;81.39;98239.72;5033384;28;20061;-56
2021/12/04 04:05:04;;;;;;;9.70;4.57;;;;;;;-1.98;82.03;98248.31;5032780;28;20528;-56
2021/12/04 04:07:49;;;;;;;9.85;4.65;;;;;;;-2.04;82.19;98230.47;5033837;28;20480;-56
2021/12/04 04:10:35;;;;;;;9.02;4.95;;;;;;;-1.99;82.44;98217.50;5032254;28;20056;-51
2021/12/04 04:13:21;;;;;;;9.20;4.85;;;;;;;-1.99;82.42;98204.66;5033587;28;20052;-56
2021/12/04 04:16:07;;;;;;;8.55;4.43;;;;;;;-1.91;82.08;98212.19;5033499;28;20419;-51
2021/12/04 04:18:53;;;;;;;7.00;3.83;;;;;;;-1.90;82.86;98216.44;5030908;28;20044;-58
2021/12/04 04:21:40;;;;;;;8.85;4.78;;;;;;;-1.89;82.62;98218.09;5031651;28;20052;-57
2021/12/04 04:24:29;;;;;;;7.93;3.65;;;;;;;-1.48;88.51;98215.28;5015930;28;20052;-57
2021/12/04 04:27:15;;;;;;;13.38;5.28;;;;;;;-1.23;86.88;98201.75;5037654;28;20507;-56
2021/12/04 04:30:03;;;;;;;9.93;4.20;;;;;;;-0.64;88.96;98199.13;5023989;28;20064;-57
2021/12/04 04:32:50;;;;;;;13.07;4.90;;;;;;;-1.12;86.21;98188.56;5031624;28;20057;-56
2021/12/04 04:35:36;;;;;;;10.73;4.80;;;;;;;-1.54;85.36;98169.22;5030899;28;20044;-54
2021/12/04 04:38:32;;;;;;;9.20;5.00;;;;;;;-1.37;85.37;98176.44;5028570;28;20507;-56
2021/12/04 05:14:58;;;;;;;10.52;5.57;;;;;;;-1.73;84.15;98129.47;5030101;28;20045;-58
2021/12/04 05:20:36;;;;;;;11.57;5.22;;;;;;;-2.00;84.68;98128.53;4996584;28;20053;-60
2021/12/04 05:23:23;;;;;;;10.52;5.65;;;;;;;-1.78;84.43;98131.31;5010221;28;20049;-58
2021/12/04 05:26:11;;;;;;;11.25;4.95;;;;;;;-1.63;83.72;98118.94;4996478;28;20528;-58
2021/12/04 05:28:59;;;;;;;9.55;4.97;;;;;;;-1.64;83.65;98119.81;5010260;28;20053;-59
2021/12/04 05:31:46;;;;;;;11.00;5.82;;;;;;;-1.73;83.29;98126.09;5002162;28;20045;-58
2021/12/04 05:34:33;;;;;;;9.98;4.47;;;;;;;-2.08;84.66;98115.06;5007927;28;20076;-58
2021/12/04 05:37:18;;;;;;;8.68;4.80;;;;;;;-2.04;84.39;98117.50;5012586;28;20060;-58
2021/12/04 05:40:10;;;;;;;10.77;5.22;;;;;;;-2.04;84.46;98129.50;5011355;28;20049;-58
2021/12/04 05:43:01;;;;;;;10.25;5.85;;;;;;;-2.15;84.90;98109.22;5012305;28;20413;-58
2021/12/04 05:45:55;;;;;;;10.50;6.00;;;;;;;-2.11;85.31;98106.56;5011000;28;20068;-59
2021/12/04 05:48:52;;;;;;;10.48;5.05;;;;;;;-2.06;85.72;98103.03;5012483;28;20389;-59
2021/12/04 05:57:46;;;;;;;8.00;5.07;;;;;;;-2.01;85.60;98103.75;5011069;28;20057;-59
2021/12/04 06:00:32;;;;;;;8.45;5.28;;;;;;;-1.95;84.81;98083.03;5012101;28;20057;-59
2021/12/04 06:03:18;;;;;;;9.18;5.47;;;;;;;-2.25;84.73;98086.38;5002242;28;20053;-59
2021/12/04 06:06:04;;;;;;;9.18;4.78;;;;;;;-2.26;85.01;98092.41;5012053;28;20053;-58
2021/12/04 06:08:50;;;;;;;10.75;5.38;;;;;;;-2.04;85.05;98091.81;5012022;28;20057;-57
2021/12/04 06:11:36;;;;;;;12.35;5.07;;;;;;;-2.07;84.70;98098.78;5016783;28;20053;-59
2021/12/04 06:14:22;;;;;;;8.73;4.65;;;;;;;-2.03;84.90;98098.66;5012111;28;20511;-57
2021/12/04 06:17:07;;;;;;;8.65;4.75;;;;;;;-2.10;84.54;98109.97;5028432;28;20056;-60
2021/12/04 06:22:57;;;;;;;7.82;4.28;;;;;;;-2.16;84.92;98100.72;5031747;28;20048;-58
2021/12/04 06:25:43;;;;;;;7.70;4.32;;;;;;;-2.24;85.76;98082.94;5030372;28;20651;-57
2021/12/04 06:28:29;;;;;;;9.65;5.00;;;;;;;-1.98;84.36;98095.94;5030741;28;20053;-59
2021/12/04 06:31:15;;;;;;;8.30;4.68;;;;;;;-2.20;84.91;98081.13;5031582;28;20057;-59
2021/12/04 06:34:01;;;;;;;8.00;4.07;;;;;;;-1.82;84.78;98082.66;5030628;28;20069;-60
2021/12/04 06:36:47;;;;;;;10.68;5.07;;;;;;;-1.67;82.58;98095.06;5031538;28;20053;-60
2021/12/04 06:39:32;;;;;;;8.98;4.97;;;;;;;-1.67;82.04;98079.66;5031547;28;20065;-60
2021/12/04 06:42:18;;;;;;;9.52;4.72;;;;;;;-1.66;82.89;98098.47;5031366;28;20052;-60
2021/12/04 06:45:05;;;;;;;8.43;4.85;;;;;;;-1.57;82.30;98087.94;5031378;28;20053;-58
2021/12/04 06:47:55;;;;;;;8.55;4.55;;;;;;;-0.96;80.02;98078.34;5030746;28;20053;-59
2021/12/04 06:53:32;;;;;;;6.70;4.43;;;;;;;-1.39;80.78;98073.66;5038422;28;20057;-59
2021/12/04 06:56:20;;;;;;;10.30;4.65;;;;;;;-1.06;80.00;98074.41;5035127;28;20421;-62
2021/12/04 06:59:11;;;;;;;9.82;4.80;;;;;;;-1.15;80.94;98062.69;5034146;28;20052;-60
2021/12/04 07:01:57;;;;;;;8.95;4.70;;;;;;;-0.82;79.66;98066.78;5025828;28;20060;-61
2021/12/04 07:04:43;;;;;;;8.88;4.85;;;;;;;-0.35;77.74;98063.47;5033896;28;20048;-61
2021/12/04 07:07:29;;;;;;;8.18;3.65;;;;;;;0.30;83.10;98051.69;5033994;28;20064;-63
2021/12/04 07:10:15;;;;;;;9.02;4.60;;;;;;;-0.27;79.56;98046.03;5034093;28;20488;-59
2021/12/04 07:13:02;;;;;;;8.55;4.82;;;;;;;-0.98;81.01;98054.44;5034246;28;20064;-56
2021/12/04 07:15:58;;;;;;;8.90;4.68;;;;;;;-0.72;79.33;98044.16;5034498;28;20060;-62
2021/12/04 07:18:44;;;;;;;6.38;4.13;;;;;;;-1.23;81.34;98050.06;5034769;28;20073;-60
2021/12/04 07:21:29;;;;;;;6.95;4.07;;;;;;;-1.26;82.10;98045.03;5039578;28;20080;-61
2021/12/04 07:24:16;;;;;;;7.07;4.03;;;;;;;-1.15;82.74;98027.53;5034185;28;20048;-59
2021/12/04 07:27:02;;;;;;;9.50;4.90;;;;;;;-0.93;81.01;98046.56;5040226;28;20056;-60
2021/12/04 07:29:50;;;;;;;11.07;4.57;;;;;;;-1.05;81.74;98016.94;5034760;28;20401;-57
2021/12/04 07:32:45;;;;;;;9.20;4.43;;;;;;;-1.08;80.89;98017.88;5033552;28;20056;-59
2021/12/04 07:35:31;;;;;;;14.95;6.25;;;;;;;-0.94;83.63;98024.28;5024979;28;20052;-61
2021/12/04 07:38:17;;;;;;;8.45;4.80;;;;;;;-1.06;82.37;98018.66;5032143;28;20056;-59
2021/12/04 07:41:03;;;;;;;10.68;5.07;;;;;;;-1.00;80.94;98018.44;5033310;28;20507;-59
2021/12/04 07:43:49;;;;;;;8.35;4.20;;;;;;;-1.06;81.51;98033.28;5046309;28;20053;-62
2021/12/04 07:46:40;;;;;;;11.65;5.35;;;;;;;-0.87;81.49;98018.91;5030260;28;20049;-60
2021/12/04 07:49:26;;;;;;;12.13;4.75;;;;;;;-0.68;80.84;98013.13;5036426;28;20534;-60
2021/12/04 07:52:12;;;;;;;8.20;4.15;;;;;;;-0.68;79.69;98017.41;5032555;28;20052;-65
2021/12/04 07:54:58;;;;;;;8.43;4.90;;;;;;;-1.03;80.46;98018.56;5032862;28;20476;-59
2021/12/04 07:57:44;;;;;;;8.02;4.50;;;;;;;-1.01;80.84;97990.22;5032332;28;20495;-58
2021/12/04 08:00:29;;;;;;;6.35;3.75;;;;;;;-0.51;80.27;98012.50;5031407;28;20060;-43
2021/12/04 08:03:15;;;;;;;7.85;4.25;;;;;;;-0.11;79.14;98003.44;5032318;28;20052;-60
2021/12/04 08:06:01;;;;;;;7.30;4.22;;;;;;;-0.25;77.46;97997.06;5032431;28;20049;-61
2021/12/04 08:08:46;;;;;;;7.93;4.50;;;;;;;-0.52;79.36;97992.84;5031244;28;20052;-57
2021/12/04 08:11:32;;;;;;;7.65;4.68;;;;;;;-0.72;78.81;97978.13;5031206;28;20515;-61
2021/12/04 08:14:19;;;;;;;9.02;4.70;;;;;;;-0.69;80.13;97984.88;5037280;28;20503;-62
2021/12/04 08:17:05;;;;;;;10.63;4.82;;;;;;;-0.45;79.08;97978.00;5032107;28;20044;-59
2021/12/04 08:19:51;;;;;;;10.73;5.00;;;;;;;-0.47;78.53;97979.78;5031723;28;20072;-57
2021/12/04 08:22:37;;;;;;;7.60;4.18;;;;;;;-0.62;78.41;97981.19;5036108;28;20053;-59
2021/12/04 08:25:23;;;;;;;9.45;4.25;;;;;;;-0.51;78.69;97986.78;5038111;28;20056;-58
2021/12/04 08:28:08;;;;;;;9.57;4.55;;;;;;;-0.45;81.81;97959.16;5031901;28;20060;-59
2021/12/04 08:30:54;;;;;;;9.50;4.30;;;;;;;0.13;84.27;98000.81;5038256;28;20506;-59
2021/12/04 08:33:40;;;;;;;8.70;3.75;;;;;;;0.09;79.46;98002.66;5023993;28;20509;-59
2021/12/04 08:36:26;;;;;;;8.10;4.57;;;;;;;0.17;77.46;97986.91;5032180;28;20060;-59
2021/12/04 08:39:12;;;;;;;10.13;4.50;;;;;;;0.06;76.75;97989.91;5032635;28;20814;-60
2021/12/04 08:41:59;;;;;;;9.57;3.83;;;;;;;-0.06;76.21;97996.34;5059599;28;20053;-59
2021/12/04 08:44:44;;;;;;;8.35;4.10;;;;;;;0.01;76.15;97990.09;5023103;28;20053;-59
2021/12/04 08:47:30;;;;;;;7.18;4.20;;;;;;;0.72;74.05;98003.69;5031731;28;20049;-65
2021/12/04 08:50:19;;;;;;;9.45;4.32;;;;;;;0.46;74.17;97995.25;5027327;28;20047;-57
2021/12/04 08:53:06;;;;;;;9.10;4.07;;;;;;;0.74;73.51;97989.00;5027618;28;20438;-61
2021/12/04 08:55:52;;;;;;;7.78;4.47;;;;;;;0.64;73.12;97988.53;5023880;28;20053;-58
2021/12/04 08:58:39;;;;;;;8.40;4.57;;;;;;;0.53;73.42;97991.53;5030283;28;20053;-58
2021/12/04 09:01:31;;;;;;;8.40;4.45;;;;;;;0.57;72.97;97977.63;5031058;28;20504;-58
2021/12/04 09:04:29;;;;;;;9.40;3.67;;;;;;;0.81;72.65;97992.16;5030302;28;20060;-58
2021/12/04 09:07:18;;;;;;;7.18;4.05;;;;;;;0.86;71.51;97987.66;5037044;28;20064;-58
2021/12/04 09:10:06;;;;;;;7.63;3.88;;;;;;;0.60;72.56;98000.69;5031772;28;20052;-58
2021/12/04 09:12:52;;;;;;;5.97;3.35;;;;;;;0.07;73.93;97964.09;5031923;28;20052;-58
2021/12/04 09:15:39;;;;;;;7.75;4.25;;;;;;;0.30;74.27;97953.78;5034969;28;20048;-58
2021/12/04 09:18:26;;;;;;;9.40;4.20;;;;;;;0.44;73.67;97974.69;5029029;28;20109;-55
2021/12/04 09:21:12;;;;;;;8.35;4.03;;;;;;;0.41;73.11;97955.94;5050624;28;20503;-59
2021/12/04 09:24:11;;;;;;;9.75;4.07;;;;;;;0.09;74.66;97967.47;5031845;28;20065;-56
2021/12/04 09:33:04;;;;;;;8.52;4.43;;;;;;;0.76;77.31;97935.63;5036001;28;20353;-61
2021/12/04 10:00:36;;;;;;;6.88;3.90;;;;;;;1.95;68.65;97873.63;5028743;28;20053;-58
2021/12/04 10:11:16;;;;;;;9.57;4.00;;;;;;;2.28;71.50;97887.59;5015555;28;20053;-59
2021/12/04 10:16:24;;;;;;;6.57;3.22;;;;;;;1.86;69.33;97902.50;5019788;28;20053;-52
2021/12/04 10:34:35;;;;;;;5.88;3.03;;;;;;;5.81;72.43;97841.41;5034220;28;20064;-59
2021/12/04 10:37:26;;;;;;;9.32;4.30;;;;;;;7.38;72.25;97828.44;5032546;28;20056;-61
2021/12/04 10:40:13;;;;;;;9.88;3.72;;;;;;;7.28;65.38;97837.81;5033377;28;20064;-60
2021/12/04 10:43:01;;;;;;;5.85;2.45;;;;;;;7.85;65.68;97842.59;5031580;28;20520;-59
2021/12/04 10:45:55;;;;;;;11.88;3.55;;;;;;;7.72;65.01;97804.34;5032065;28;20060;-58
2021/12/04 10:49:00;;;;;;;8.15;3.70;;;;;;;6.73;70.38;97786.84;5037343;28;20056;-58
2021/12/04 10:51:48;;;;;;;8.13;3.30;;;;;;;6.15;59.54;97814.06;5014678;28;20068;-59
2021/12/04 10:54:40;;;;;;;8.27;3.88;;;;;;;5.49;59.68;97795.72;5034712;28;20057;-60
2021/12/04 10:57:37;;;;;;;6.13;3.00;;;;;;;4.05;78.86;97786.91;5040717;28;20060;-56
2021/12/04 11:00:41;;;;;;;4.95;3.13;;;;;;;3.71;62.91;97812.13;5034720;28;20052;-59
2021/12/04 11:27:53;;;;;;;8.07;3.38;;;;;;;3.04;82.36;97738.91;5033091;28;20396;-37
2021/12/04 11:39:58;;;;;;;7.70;3.83;;;;;;;1.80;69.18;97749.47;5031597;28;20132;-51
2021/12/04 11:42:45;;;;;;;8.38;4.00;;;;;;;1.67;70.05;97736.31;5033364;28;20053;-48
2021/12/04 11:45:47;;;;;;;8.55;4.25;;;;;;;1.78;70.67;97737.56;5032881;28;20052;-50
2021/12/04 11:48:39;;;;;;;6.72;3.75;;;;;;;1.57;69.84;97719.59;5031669;28;20052;-48
2021/12/04 11:51:26;;;;;;;6.82;3.92;;;;;;;1.88;70.90;97722.44;5033598;28;20048;-59
2021/12/04 11:54:13;;;;;;;7.38;2.83;;;;;;;2.01;69.06;97720.06;5033128;28;20060;-50
2021/12/04 11:57:05;;;;;;;8.27;3.78;;;;;;;2.50;69.25;97726.25;5032670;28;20053;-52
2021/12/04 11:59:51;;;;;;;9.02;3.40;;;;;;;2.12;68.38;97745.38;5033161;28;20140;-50
2021/12/04 12:02:37;;;;;;;8.20;3.97;;;;;;;1.54;69.09;97735.22;5033287;28;20061;-58
2021/12/04 12:05:23;;;;;;;7.18;3.13;;;;;;;1.77;70.09;97730.69;5033526;28;20060;-50
2021/12/04 12:08:21;;;;;;;7.43;3.50;;;;;;;1.93;68.09;97715.28;5033200;28;20045;-45
2021/12/04 12:11:26;;;;;;;6.15;3.30;;;;;;;1.82;69.72;97723.56;5033314;28;20048;-47
2021/12/04 12:14:14;;;;;;;8.15;3.72;;;;;;;1.91;71.07;97722.28;5033115;28;20504;-46
2021/12/04 12:17:00;;;;;;;7.28;3.53;;;;;;;1.40;70.28;97702.34;5032896;28;20060;-46
2021/12/04 12:19:52;;;;;;;7.32;4.10;;;;;;;1.62;69.67;97714.22;5033079;28;20060;-51
2021/12/04 12:22:42;;;;;;;8.60;4.20;;;;;;;1.49;69.97;97714.78;5032786;28;20064;-51
2021/12/04 12:37:27;;;;;;;7.20;3.40;;;;;;;1.39;70.30;97695.53;5030514;28;20052;-46
2021/12/04 12:40:14;;;;;;;6.97;3.60;;;;;;;1.36;70.39;97693.91;5030075;28;20064;-48
2021/12/04 12:43:11;;;;;;;8.73;3.95;;;;;;;1.46;70.12;97700.31;5025523;28;20487;-47
2021/12/04 12:45:58;;;;;;;5.22;3.03;;;;;;;1.68;69.44;97690.69;5032577;28;20159;-47
2021/12/04 12:48:53;;;;;;;8.98;3.30;;;;;;;1.66;69.23;97683.00;5035082;28;20491;-49
2021/12/04 12:51:38;;;;;;;5.78;3.85;;;;;;;1.56;68.85;97687.78;5018447;28;20057;-48
2021/12/04 12:54:41;;;;;;;3.55;2.28;;;;;;;1.42;68.41;97703.09;5012325;28;20061;-49
2021/12/04 12:57:35;;;;;;;4.75;2.58;;;;;;;1.36;68.32;97693.91;5023216;28;20056;-50
2021/12/04 13:12:25;;;;;;;4.85;2.90;;;;;;;0.93;68.74;97634.88;5023228;28;20077;-49
2021/12/04 13:15:11;;;;;;;6.43;3.22;;;;;;;1.03;69.13;97640.44;5027101;28;20056;-50
2021/12/04 13:18:17;;;;;;;5.88;2.97;;;;;;;1.08;68.73;97644.44;5030768;28;20068;-51
2021/12/04 13:21:09;;;;;;;7.65;3.20;;;;;;;1.25;67.45;97624.75;5035078;28;20128;-50
2021/12/04 13:23:57;;;;;;;6.10;3.28;;;;;;;1.12;67.52;97627.09;5030887;28;20535;-52
2021/12/04 13:26:46;;;;;;;3.45;1.83;;;;;;;1.15;67.31;97629.50;5029049;28;20040;-48
2021/12/04 13:29:32;;;;;;;5.68;3.13;;;;;;;1.14;66.68;97616.69;5029357;28;20045;-51
2021/12/04 13:32:27;;;;;;;6.05;3.55;;;;;;;1.11;65.79;97604.75;5030544;28;20067;-50
2021/12/04 13:35:21;;;;;;;9.27;3.10;;;;;;;0.97;65.89;97613.16;5030866;28;20048;-50
2021/12/04 13:38:07;;;;;;;5.13;2.63;;;;;;;1.13;65.73;97620.19;5029547;28;20049;-51
2021/12/04 13:40:54;;;;;;;6.82;3.70;;;;;;;1.03;65.42;97609.47;5028786;28;20052;-52
2021/12/04 13:43:40;;;;;;;8.60;3.95;;;;;;;1.03;65.74;97630.94;5021097;28;20224;-51
2021/12/04 13:46:27;;;;;;;4.55;2.47;;;;;;;1.18;64.88;97610.47;5030126;28;20856;-49
2021/12/04 13:49:16;;;;;;;5.13;2.25;;;;;;;1.45;63.58;97617.78;5029648;28;20428;-53
2021/12/04 13:52:11;;;;;;;6.10;2.60;;;;;;;1.50;63.13;97602.91;5028933;28;20440;-51
2021/12/04 13:55:05;;;;;;;5.28;2.63;;;;;;;1.50;62.27;97613.22;5030616;28;20116;-49
2021/12/04 13:57:52;;;;;;;6.68;3.03;;;;;;;1.27;62.71;97616.94;5036333;28;20052;-48
2021/12/04 14:00:38;;;;;;;5.75;3.10;;;;;;;1.39;62.38;97618.06;5037562;28;20068;-49
2021/12/04 14:03:28;;;;;;;4.28;2.55;;;;;;;1.34;62.23;97624.28;5031016;28;20064;-52
2021/12/04 14:06:18;;;;;;;5.32;2.90;;;;;;;1.28;62.33;97600.53;5031250;28;20079;-53
2021/12/04 14:09:06;;;;;;;6.43;2.72;;;;;;;1.22;62.54;97624.91;5031138;28;20072;-54
2021/12/04 14:11:53;;;;;;;6.28;2.90;;;;;;;1.28;62.14;97595.34;5031353;28;20068;-55
2021/12/04 14:14:39;;;;;;;3.95;2.05;;;;;;;1.30;61.79;97624.50;5031310;28;20056;-51
2021/12/04 14:17:25;;;;;;;5.95;2.47;;;;;;;1.25;61.79;97617.00;5036154;28;20064;-51
2021/12/04 14:20:20;;;;;;;3.90;2.28;;;;;;;1.34;61.26;97602.78;5030168;28;20060;-49
2021/12/04 14:23:06;;;;;;;4.85;2.85;;;;;;;1.18;61.35;97592.41;5030397;28;20056;-53
2021/12/04 14:25:55;;;;;;;5.95;2.40;;;;;;;1.14;61.67;97608.94;5031231;28;20057;-54
2021/12/04 14:28:44;;;;;;;4.47;2.10;;;;;;;1.16;60.74;97600.22;5031175;28;20096;-52
2021/12/04 14:31:31;;;;;;;4.13;2.38;;;;;;;0.88;60.88;97627.34;5030650;28;20052;-52
2021/12/04 14:34:23;;;;;;;5.80;2.83;;;;;;;0.86;61.84;97616.25;5036085;28;20045;-51
2021/12/04 14:37:15;;;;;;;3.47;2.07;;;;;;;0.75;61.72;97606.47;5031420;28;20076;-48
2021/12/04 14:40:03;;;;;;;4.82;2.42;;;;;;;0.71;62.01;97628.97;5022163;28;20068;-53
2021/12/04 14:42:50;;;;;;;3.38;1.95;;;;;;;0.72;61.73;97614.31;5031057;28;20052;-54
2021/12/04 14:45:38;;;;;;;7.43;2.33;;;;;;;0.64;61.57;97594.06;5031064;28;20069;-50
2021/12/04 14:48:34;;;;;;;3.10;1.80;;;;;;;0.72;61.42;97593.69;5029827;28;20060;-51
2021/12/04 14:51:22;;;;;;;7.68;2.75;;;;;;;0.68;61.65;97611.06;5030000;28;20045;-50
2021/12/04 14:54:08;;;;;;;5.70;1.98;;;;;;;0.75;61.65;97618.50;5029490;28;20057;-49
2021/12/04 14:56:54;;;;;;;6.07;2.30;;;;;;;0.56;62.40;97606.47;5031172;28;20072;-47
2021/12/04 14:59:40;;;;;;;5.40;2.80;;;;;;;0.52;63.06;97604.94;5031050;28;20060;-48
2021/12/04 15:02:26;;;;;;;5.80;3.15;;;;;;;0.51;63.39;97605.84;5030982;28;20061;-48
2021/12/04 15:05:12;;;;;;;3.83;2.55;;;;;;;0.78;62.43;97592.56;5021934;28;20507;-53
2021/12/04 15:08:09;;;;;;;7.97;2.65;;;;;;;0.89;62.20;97582.59;5035393;28;20613;-51
2021/12/04 15:10:59;;;;;;;5.47;2.22;;;;;;;0.70;63.37;97601.50;5030805;28;20463;-51
2021/12/04 15:14:09;;;;;;;7.78;2.80;;;;;;;0.74;63.97;97597.03;5030657;28;20061;-52
2021/12/04 15:16:59;;;;;;;5.35;3.00;;;;;;;0.71;64.45;97592.03;5033075;28;20048;-50
2021/12/04 15:19:46;;;;;;;6.40;2.53;;;;;;;0.67;64.60;97582.78;5033345;28;20061;-48
2021/12/04 15:22:36;;;;;;;9.30;4.25;;;;;;;0.69;65.52;97609.31;5034383;28;20056;-51
2021/12/04 15:25:24;;;;;;;4.82;2.50;;;;;;;1.13;65.32;97595.19;5037433;28;20052;-50
2021/12/04 15:28:16;;;;;;;3.70;2.30;;;;;;;0.89;65.01;97590.31;5037884;28;20068;-47
2021/12/04 15:31:03;;;;;;;6.20;2.85;;;;;;;0.78;65.78;97580.53;5032671;28;20598;-48
2021/12/04 15:33:52;;;;;;;6.07;3.05;;;;;;;0.83;65.70;97595.78;5033127;28;20420;-47
2021/12/04 15:36:45;;;;;;;4.65;3.00;;;;;;;0.68;66.50;97585.28;5037441;28;20048;-47
2021/12/04 15:39:36;;;;;;;6.90;3.08;;;;;;;0.78;67.20;97582.25;5032434;28;20436;-47
2021/12/04 15:42:29;;;;;;;7.78;3.00;;;;;;;0.94;66.25;97584.94;5015609;28;20385;-48
2021/12/04 15:54:19;;;;;;;7.70;3.10;;;;;;;1.12;66.86;97585.81;5032404;28;20431;-60
2021/12/04 15:57:14;;;;;;;5.57;2.63;;;;;;;0.98;65.85;97595.03;5032447;28;20060;-64
2021/12/04 16:00:13;;;;;;;6.15;3.17;;;;;;;0.90;65.57;97591.97;5029254;28;20068;-62
2021/12/04 16:03:04;;;;;;;7.03;3.58;;;;;;;0.82;64.55;97594.09;5013851;28;20056;-61
2021/12/04 16:05:56;;;;;;;7.60;3.47;;;;;;;0.71;63.89;97595.44;5013971;28;20405;-60
2021/12/04 16:08:42;;;;;;;7.28;3.35;;;;;;;0.77;63.67;97611.53;5013607;28;20081;-61
2021/12/04 16:11:36;;;;;;;7.97;3.30;;;;;;;0.84;63.41;97605.19;5018282;28;20064;-58
2021/12/04 16:14:29;;;;;;;4.82;2.58;;;;;;;0.86;63.14;97595.63;5013404;28;20060;-61
2021/12/04 16:17:15;;;;;;;5.93;2.90;;;;;;;0.82;62.67;97619.88;5015230;28;20056;-59
2021/12/04 16:20:16;;;;;;;5.50;2.90;;;;;;;0.75;61.84;97606.47;5017834;28;20504;-61
2021/12/04 16:23:04;;;;;;;6.63;2.92;;;;;;;0.86;62.09;97637.72;5013359;28;20080;-61
2021/12/04 16:25:51;;;;;;;4.95;2.85;;;;;;;0.67;61.75;97624.03;5011982;28;20600;-60
2021/12/04 16:31:58;;;;;;;9.57;2.83;;;;;;;0.69;62.41;97648.81;5011975;28;20061;-59